Time;durP1;ratioP1;P1;durP2;ratioP2;P2;SDS_P1;SDS_P2;PMS_P1;PMS_P2;Temp;Humidity;BMP_temperature;BMP_pressure;BME280_temperature;BME280_humidity;BME280_pressure;Samples;Min_cycle;Max_cycle;Signal;HPM_P1;HPM_P2
2021/07/25 00:05:45;;;;;;;1.17;0.70;;;25.10;99.90;;;;;;21122156;28;20192;-67
2021/07/25 00:15:49;;;;;;;3.00;1.40;;;25.00;99.90;;;;;;21101577;28;20242;-67
2021/07/25 00:26:14;;;;;;;1.60;0.90;;;24.90;99.90;;;;;;21121601;28;20384;-66
2021/07/25 00:36:18;;;;;;;5.05;1.42;;;24.70;99.90;;;;;;21118836;28;20234;-67
2021/07/25 00:46:23;;;;;;;3.30;2.15;;;24.80;99.90;;;;;;21120371;28;20198;-66
2021/07/25 00:56:26;;;;;;;2.67;1.40;;;24.70;99.90;;;;;;21115562;28;20311;-67
2021/07/25 01:06:43;;;;;;;1.38;1.10;;;24.70;99.90;;;;;;21120052;28;20196;-67
2021/07/25 01:16:47;;;;;;;5.05;1.33;;;24.60;99.90;;;;;;21118174;28;20227;-67
2021/07/25 01:26:52;;;;;;;2.33;1.57;;;24.60;99.90;;;;;;21114976;28;20214;-67
2021/07/25 01:37:04;;;;;;;1.23;1.13;;;24.60;99.90;;;;;;21117703;28;20293;-67
2021/07/25 01:47:09;;;;;;;2.20;1.20;;;24.60;99.90;;;;;;21096932;28;20200;-66
2021/07/25 01:57:12;;;;;;;2.20;1.30;;;24.40;99.90;;;;;;21114725;28;20686;-65
2021/07/25 02:07:18;;;;;;;1.50;1.08;;;24.40;99.90;;;;;;21115598;28;21005;-67
2021/07/25 02:17:21;;;;;;;6.77;2.30;;;24.40;99.90;;;;;;21111815;28;20219;-67
2021/07/25 02:27:26;;;;;;;4.30;1.27;;;24.40;99.90;;;;;;21112482;28;20740;-67
2021/07/25 02:37:30;;;;;;;1.00;0.90;;;24.50;99.90;;;;;;21111002;28;20235;-66
2021/07/25 02:47:35;;;;;;;2.47;0.87;;;24.40;99.90;;;;;;21113117;28;20210;-66
2021/07/25 02:57:38;;;;;;;1.63;0.97;;;24.30;99.90;;;;;;21109194;28;20223;-67
2021/07/25 03:07:43;;;;;;;3.60;1.15;;;24.30;99.90;;;;;;21113287;28;20292;-68
2021/07/25 03:17:47;;;;;;;2.72;1.63;;;24.20;99.90;;;;;;21107739;28;20239;-66
2021/07/25 03:27:52;;;;;;;1.50;1.37;;;24.20;99.90;;;;;;21109580;28;20192;-67
2021/07/25 03:37:56;;;;;;;1.63;1.23;;;24.20;99.90;;;;;;21108994;28;20219;-67
2021/07/25 03:48:01;;;;;;;2.10;1.60;;;24.10;99.90;;;;;;21109129;28;20207;-67
2021/07/25 03:58:05;;;;;;;1.95;1.08;;;24.00;99.90;;;;;;21108025;28;20226;-68
2021/07/25 04:08:12;;;;;;;4.10;1.00;;;24.10;99.90;;;;;;21109345;28;20959;-66
2021/07/25 04:18:15;;;;;;;3.85;1.45;;;23.90;99.90;;;;;;21120903;28;20231;-66
2021/07/25 04:28:21;;;;;;;6.63;1.23;;;23.90;99.90;;;;;;21122222;28;20191;-68
2021/07/25 04:38:24;;;;;;;3.40;0.97;;;23.60;99.90;;;;;;21121884;28;20225;-66
2021/07/25 04:48:35;;;;;;;1.20;1.10;;;23.70;99.90;;;;;;21099328;28;20192;-65
2021/07/25 04:58:45;;;;;;;3.10;1.80;;;23.80;99.90;;;;;;21033666;28;20219;-67
2021/07/25 05:08:50;;;;;;;2.03;1.67;;;23.80;99.90;;;;;;21034757;28;20188;-66
2021/07/25 05:19:05;;;;;;;6.10;1.70;;;24.00;99.90;;;;;;21112974;28;20249;-67
2021/07/25 05:29:13;;;;;;;4.20;2.17;;;24.10;99.90;;;;;;21116518;28;20199;-67
2021/07/25 05:39:17;;;;;;;1.27;1.03;;;24.00;99.90;;;;;;21114056;28;20245;-67
2021/07/25 05:49:22;;;;;;;2.87;1.30;;;24.10;99.90;;;;;;21115583;28;20633;-67
2021/07/25 05:59:26;;;;;;;1.73;0.60;;;24.20;99.90;;;;;;21115569;28;20687;-66
2021/07/25 06:09:31;;;;;;;2.22;1.67;;;24.40;99.90;;;;;;21113317;28;20221;-66
2021/07/25 06:19:35;;;;;;;1.38;0.93;;;24.80;99.90;;;;;;21113099;28;20235;-66
2021/07/25 06:29:39;;;;;;;1.65;1.27;;;25.20;99.90;;;;;;21112262;28;20202;-64
2021/07/25 06:39:43;;;;;;;1.45;1.35;;;25.50;99.90;;;;;;21093505;28;21080;-66
2021/07/25 06:49:48;;;;;;;1.60;1.10;;;25.70;99.90;;;;;;21109005;28;20561;-69
2021/07/25 06:59:52;;;;;;;5.00;1.85;;;26.00;99.90;;;;;;21109228;28;21138;-66
2021/07/25 07:09:57;;;;;;;2.58;2.03;;;26.00;99.90;;;;;;21089495;28;20187;-67
2021/07/25 07:20:00;;;;;;;5.80;1.65;;;26.10;99.90;;;;;;21107635;28;20230;-66
2021/07/25 07:30:06;;;;;;;1.35;1.25;;;26.00;99.90;;;;;;21106318;28;20217;-66
2021/07/25 07:40:10;;;;;;;4.00;2.10;;;26.20;99.90;;;;;;21109733;28;20231;-66
2021/07/25 07:50:16;;;;;;;1.17;1.02;;;26.30;99.90;;;;;;21116602;28;20227;-65
2021/07/25 08:00:19;;;;;;;2.10;1.92;;;26.40;99.90;;;;;;21124714;28;20360;-66
2021/07/25 08:10:24;;;;;;;5.47;2.38;;;26.60;99.90;;;;;;21120911;28;20187;-66
2021/07/25 08:20:29;;;;;;;1.77;1.58;;;26.80;99.90;;;;;;21121865;28;20273;-67
2021/07/25 08:30:34;;;;;;;10.38;2.10;;;26.70;99.90;;;;;;21102310;28;20187;-66
2021/07/25 08:40:37;;;;;;;14.35;2.47;;;26.60;99.90;;;;;;21117861;28;20690;-68
2021/07/25 08:50:44;;;;;;;2.97;1.42;;;26.80;99.90;;;;;;21111983;28;20195;-67
2021/07/25 09:00:50;;;;;;;4.00;2.58;;;27.10;99.90;;;;;;21092584;28;20218;-67
2021/07/25 09:10:58;;;;;;;2.92;1.45;;;27.20;99.90;;;;;;21114753;28;20520;-68
2021/07/25 09:21:02;;;;;;;4.13;1.70;;;27.50;99.90;;;;;;21110696;28;20592;-66
2021/07/25 09:31:13;;;;;;;1.48;0.95;;;27.70;99.90;;;;;;21113926;28;20187;-66
2021/07/25 09:41:22;;;;;;;2.45;1.67;;;27.70;99.90;;;;;;21111551;28;20598;-67
2021/07/25 09:51:27;;;;;;;1.52;1.42;;;27.80;99.90;;;;;;21090677;28;20199;-66
2021/07/25 10:01:38;;;;;;;3.35;2.65;;;28.10;99.90;;;;;;21108948;28;20357;-66
2021/07/25 10:11:48;;;;;;;7.43;2.13;;;28.00;99.90;;;;;;21090466;28;20294;-66
2021/07/25 10:21:54;;;;;;;1.33;1.13;;;28.10;99.90;;;;;;21107693;28;20620;-66
2021/07/25 10:31:59;;;;;;;1.45;0.80;;;28.40;99.90;;;;;;21096906;27;20357;-64
2021/07/25 10:42:05;;;;;;;3.67;1.15;;;29.10;99.90;;;;;;21004487;28;20236;-67
2021/07/25 10:52:10;;;;;;;0.80;0.80;;;29.70;99.90;;;;;;21020141;28;20192;-63
2021/07/25 11:02:35;;;;;;;2.85;1.00;;;30.00;99.90;;;;;;21022999;28;20212;-64
2021/07/25 11:13:18;;;;;;;0.93;0.73;;;29.90;99.90;;;;;;21048915;28;20223;-64
2021/07/25 11:23:37;;;;;;;2.67;1.33;;;29.90;99.90;;;;;;21113107;28;20226;-66
2021/07/25 11:33:53;;;;;;;1.33;1.05;;;30.10;99.90;;;;;;21120734;28;20570;-65
2021/07/25 11:44:00;;;;;;;2.97;1.60;;;31.40;99.90;;;;;;21119141;28;20223;-65
2021/07/25 11:54:04;;;;;;;1.83;1.30;;;31.80;99.90;;;;;;21100403;28;20206;-65
2021/07/25 12:04:26;;;;;;;6.40;2.55;;;31.90;99.90;;;;;;21120301;28;20238;-64
2021/07/25 12:14:30;;;;;;;1.40;1.30;;;31.60;99.90;;;;;;21116745;28;20219;-66
2021/07/25 12:24:37;;;;;;;9.52;1.50;;;32.00;99.90;;;;;;21117789;28;20219;-63
2021/07/25 12:34:40;;;;;;;2.08;1.52;;;33.10;99.90;;;;;;21116845;28;20209;-65
2021/07/25 12:44:46;;;;;;;10.00;1.52;;;33.40;99.90;;;;;;21116057;28;20226;-66
2021/07/25 12:54:49;;;;;;;0.70;0.70;;;31.90;99.90;;;;;;21116581;28;20204;-67
2021/07/25 13:04:54;;;;;;;5.88;1.50;;;30.70;99.90;;;;;;21113058;28;20227;-65
2021/07/25 13:14:58;;;;;;;3.83;2.63;;;32.80;99.90;;;;;;21109999;28;20478;-66
2021/07/25 13:25:03;;;;;;;1.05;0.95;;;30.90;99.90;;;;;;21113963;28;20223;-66
2021/07/25 13:35:07;;;;;;;0.93;0.90;;;30.50;99.90;;;;;;21109278;28;20199;-66
2021/07/25 13:45:13;;;;;;;4.40;1.17;;;30.80;99.90;;;;;;21110644;28;20221;-66
2021/07/25 13:55:17;;;;;;;1.40;1.00;;;33.00;99.90;;;;;;21091636;28;20187;-64
2021/07/25 14:05:22;;;;;;;1.48;1.20;;;32.50;99.90;;;;;;21110598;28;20198;-65
2021/07/25 14:15:26;;;;;;;1.30;1.15;;;32.20;99.90;;;;;;21091889;28;20229;-64
2021/07/25 14:25:31;;;;;;;0.80;0.70;;;31.90;99.90;;;;;;21109262;28;20195;-66
2021/07/25 14:35:35;;;;;;;1.48;1.00;;;31.40;99.90;;;;;;21102897;28;20200;-65
2021/07/25 14:45:43;;;;;;;1.05;0.95;;;32.50;99.90;;;;;;21109007;28;20502;-63
2021/07/25 14:55:47;;;;;;;3.90;1.15;;;32.10;99.90;;;;;;21106411;28;20238;-64
2021/07/25 15:05:52;;;;;;;5.93;1.10;;;32.60;99.90;;;;;;21108410;28;20226;-65
2021/07/25 15:15:55;;;;;;;1.23;1.13;;;33.10;99.90;;;;;;21101479;28;20231;-64
2021/07/25 15:26:01;;;;;;;0.82;0.60;;;33.10;99.90;;;;;;21091752;28;20697;-63
2021/07/25 15:36:05;;;;;;;5.53;1.88;;;33.50;99.90;;;;;;21102036;28;20692;-65
2021/07/25 15:46:12;;;;;;;3.25;1.25;;;30.90;99.90;;;;;;21086658;28;20208;-64
2021/07/25 15:56:16;;;;;;;1.17;1.08;;;31.60;99.90;;;;;;21102058;28;20294;-65
2021/07/25 16:06:23;;;;;;;1.52;0.65;;;32.70;99.90;;;;;;21103843;28;20632;-64
2021/07/25 16:16:27;;;;;;;1.08;0.85;;;32.30;99.90;;;;;;21098704;28;20779;-63
2021/07/25 16:26:32;;;;;;;1.20;0.80;;;31.50;99.90;;;;;;21117653;28;20249;-65
2021/07/25 16:36:36;;;;;;;5.18;1.20;;;29.60;99.90;;;;;;21117023;28;20227;-65
2021/07/25 16:46:41;;;;;;;1.08;1.00;;;29.50;99.90;;;;;;21115577;28;20195;-65
2021/07/25 16:56:45;;;;;;;4.05;1.45;;;29.90;99.90;;;;;;21116566;28;20233;-65
2021/07/25 17:06:50;;;;;;;0.63;0.63;;;29.50;99.90;;;;;;21113698;28;20203;-65
2021/07/25 17:16:54;;;;;;;7.72;1.80;;;31.00;99.90;;;;;;21112955;28;20231;-65
2021/07/25 17:26:59;;;;;;;1.25;1.15;;;31.10;99.90;;;;;;21110223;28;20211;-66
2021/07/25 17:37:02;;;;;;;0.70;0.55;;;29.30;99.90;;;;;;21113062;28;20408;-64
2021/07/25 17:47:07;;;;;;;2.35;1.52;;;27.90;99.90;;;;;;21109396;28;20199;-66
2021/07/25 17:57:11;;;;;;;1.45;1.35;;;27.50;99.90;;;;;;21111411;28;20228;-65
2021/07/25 18:07:16;;;;;;;3.55;0.85;;;27.30;99.90;;;;;;21106170;28;20191;-65
2021/07/25 18:17:20;;;;;;;0.47;0.47;;;27.00;99.90;;;;;;21108805;28;20234;-66
2021/07/25 18:27:26;;;;;;;6.45;1.20;;;26.60;99.90;;;;;;21108979;28;20214;-65
2021/07/25 18:37:29;;;;;;;0.93;0.50;;;26.50;99.90;;;;;;21106851;28;20272;-66
2021/07/25 18:47:34;;;;;;;2.05;1.05;;;26.50;99.90;;;;;;21106405;28;20207;-65
2021/07/25 18:57:38;;;;;;;3.47;2.00;;;26.30;99.90;;;;;;21105410;28;20230;-65
2021/07/25 19:07:43;;;;;;;2.80;0.95;;;26.30;99.90;;;;;;21106807;28;20203;-66
2021/07/25 19:17:48;;;;;;;5.80;3.40;;;26.10;99.90;;;;;;21104670;28;20227;-66
2021/07/25 19:27:53;;;;;;;1.38;0.80;;;26.00;99.90;;;;;;21105266;28;20721;-66
2021/07/25 19:37:57;;;;;;;1.38;0.60;;;25.80;99.90;;;;;;21106302;28;20215;-65
2021/07/25 19:48:01;;;;;;;2.13;1.13;;;25.60;99.90;;;;;;21121419;28;20210;-65
2021/07/25 19:58:05;;;;;;;0.88;0.77;;;25.70;99.90;;;;;;21118529;28;20423;-63
2021/07/25 20:08:13;;;;;;;2.10;1.27;;;25.60;99.90;;;;;;21122661;28;20195;-64
2021/07/25 20:18:19;;;;;;;1.15;1.05;;;25.40;99.90;;;;;;21118843;28;20241;-64
2021/07/25 20:28:25;;;;;;;1.50;1.00;;;25.40;99.90;;;;;;21120785;28;20196;-66
2021/07/25 20:38:29;;;;;;;2.40;1.48;;;25.10;99.90;;;;;;21043341;28;20682;-66
2021/07/25 20:48:34;;;;;;;1.58;1.10;;;24.90;99.90;;;;;;21031284;28;20530;-66
2021/07/25 20:58:38;;;;;;;1.27;0.90;;;24.90;99.90;;;;;;21031269;28;20224;-67
2021/07/25 21:08:43;;;;;;;5.63;1.92;;;24.80;99.90;;;;;;21013056;28;20196;-66
2021/07/25 21:18:46;;;;;;;1.20;0.73;;;24.60;99.90;;;;;;21111096;28;20242;-63
2021/07/25 21:28:51;;;;;;;1.03;0.80;;;24.40;99.90;;;;;;21112994;28;20192;-65
2021/07/25 21:38:55;;;;;;;0.70;0.33;;;24.50;99.90;;;;;;21111721;28;20230;-65
2021/07/25 21:49:01;;;;;;;2.03;0.80;;;24.40;99.90;;;;;;21109448;28;20196;-65
2021/07/25 21:59:04;;;;;;;1.67;0.87;;;24.20;99.90;;;;;;21109482;28;20775;-65
2021/07/25 22:09:09;;;;;;;1.20;1.10;;;24.40;99.90;;;;;;21107167;28;20301;-65
2021/07/25 22:19:13;;;;;;;5.63;1.53;;;24.30;99.90;;;;;;21110550;28;20227;-66
2021/07/25 22:29:18;;;;;;;1.20;1.05;;;24.00;99.90;;;;;;21107872;28;20267;-65
2021/07/25 22:39:22;;;;;;;1.57;0.97;;;24.00;99.90;;;;;;21111161;28;20580;-66
2021/07/25 22:49:29;;;;;;;4.00;0.90;;;23.90;99.90;;;;;;21109220;28;20191;-66
2021/07/25 22:59:33;;;;;;;1.13;0.70;;;24.00;99.90;;;;;;21109025;28;20549;-66
2021/07/25 23:09:38;;;;;;;4.23;0.67;;;23.90;99.90;;;;;;21107750;28;20203;-66
2021/07/25 23:19:41;;;;;;;1.63;1.50;;;23.80;99.90;;;;;;21103643;28;20235;-66
2021/07/25 23:29:46;;;;;;;0.80;0.60;;;23.80;99.90;;;;;;21106576;28;20652;-66
2021/07/25 23:39:50;;;;;;;1.00;0.90;;;23.90;99.90;;;;;;21107347;28;20612;-66
2021/07/25 23:49:55;;;;;;;2.13;0.70;;;23.80;99.90;;;;;;21062429;28;20188;-66
2021/07/25 23:59:58;;;;;;;1.23;0.90;;;23.90;99.90;;;;;;21023557;28;20706;-65
